createdAt,value
2018-04-11T00:01:15.091Z,47.40
2018-04-11T00:03:44.957Z,48.00
2018-04-11T00:06:14.393Z,45.80
2018-04-11T00:08:43.366Z,47.60
2018-04-11T00:11:12.250Z,47.80
2018-04-11T00:13:41.703Z,51.60
2018-04-11T00:16:10.883Z,49.40
2018-04-11T00:18:40.354Z,47.60
2018-04-11T00:21:09.494Z,51.20
2018-04-11T00:23:38.707Z,51.00
2018-04-11T00:26:08.013Z,51.00
2018-04-11T00:28:37.077Z,50.20
2018-04-11T00:31:05.791Z,51.80
2018-04-11T00:33:35.304Z,52.00
2018-04-11T00:36:04.279Z,52.00
2018-04-11T00:38:33.337Z,52.80
2018-04-11T00:41:02.764Z,51.80
2018-04-11T00:43:31.977Z,52.00
2018-04-11T00:46:02.069Z,51.20
2018-04-11T00:48:31.253Z,50.40
2018-04-11T00:51:00.368Z,51.60
2018-04-11T00:53:30.161Z,52.00
2018-04-11T00:55:59.233Z,51.00
2018-04-11T00:58:28.442Z,52.20
2018-04-11T01:00:57.445Z,52.60
2018-04-11T01:03:26.522Z,52.60
2018-04-11T01:05:55.946Z,58.20
2018-04-11T01:08:24.570Z,61.00
2018-04-11T01:10:53.694Z,58.60
2018-04-11T01:13:22.862Z,57.60
2018-04-11T01:15:52.084Z,58.40
2018-04-11T01:18:21.188Z,53.20
2018-04-11T01:20:50.313Z,62.60
2018-04-11T01:23:19.589Z,61.60
2018-04-11T01:25:48.958Z,62.20
2018-04-11T01:28:18.307Z,63.20
2018-04-11T01:30:48.752Z,58.60
2018-04-11T01:33:17.983Z,61.60
2018-04-11T01:35:47.276Z,60.00
2018-04-11T01:38:17.299Z,58.20
2018-04-11T01:40:47.346Z,67.00
2018-04-11T01:43:16.363Z,61.00
2018-04-11T01:45:45.495Z,62.20
2018-04-11T01:48:14.571Z,66.40
2018-04-11T01:50:46.512Z,63.60
2018-04-11T01:53:15.699Z,64.80
2018-04-11T01:55:44.716Z,64.20
2018-04-11T01:58:14.202Z,66.60
2018-04-11T02:00:43.361Z,64.60
2018-04-11T02:03:12.862Z,67.40
2018-04-11T02:05:42.235Z,67.00
2018-04-11T02:08:11.581Z,63.20
2018-04-11T02:10:41.399Z,70.20
2018-04-11T02:13:10.412Z,64.00
2018-04-11T02:15:39.693Z,69.80
2018-04-11T02:18:08.871Z,74.40
2018-04-11T02:20:37.935Z,68.80
2018-04-11T02:23:06.911Z,68.00
2018-04-11T02:25:36.105Z,72.60
2018-04-11T02:28:05.495Z,75.60
2018-04-11T02:30:34.218Z,72.40
2018-04-11T02:33:03.487Z,70.40
2018-04-11T02:35:32.380Z,75.40
2018-04-11T02:38:01.531Z,71.00
2018-04-11T02:40:30.636Z,68.80
2018-04-11T02:43:00.330Z,69.00
2018-04-11T02:45:29.771Z,69.80
2018-04-11T02:47:58.571Z,63.60
2018-04-11T02:50:27.774Z,61.00
2018-04-11T02:52:57.793Z,67.20
2018-04-11T02:55:26.799Z,61.20
2018-04-11T02:58:04.022Z,65.80
2018-04-11T03:00:33.156Z,61.80
2018-04-11T03:03:02.119Z,57.80
2018-04-11T03:05:30.977Z,61.20
2018-04-11T03:07:59.884Z,56.80
2018-04-11T03:10:29.165Z,54.40
2018-04-11T03:12:58.322Z,53.60
2018-04-11T03:15:27.298Z,53.60
2018-04-11T03:17:56.116Z,51.20
2018-04-11T03:20:25.003Z,52.40
2018-04-11T03:22:54.026Z,52.60
2018-04-11T03:25:23.061Z,52.00
2018-04-11T03:27:52.054Z,49.40
2018-04-11T03:30:20.970Z,51.60
2018-04-11T03:32:50.114Z,51.80
2018-04-11T03:35:19.108Z,50.60
2018-04-11T03:37:47.789Z,49.00
2018-04-11T03:40:16.806Z,47.60
2018-04-11T03:42:45.924Z,47.40
2018-04-11T03:45:15.010Z,47.40
2018-04-11T03:47:44.358Z,46.80
2018-04-11T03:50:13.591Z,46.00
2018-04-11T03:52:42.873Z,45.00
2018-04-11T03:55:11.889Z,48.20
2018-04-11T03:57:41.035Z,45.40
2018-04-11T04:00:10.325Z,47.60
2018-04-11T04:02:39.526Z,49.00
2018-04-11T04:05:08.773Z,49.00
2018-04-11T04:07:38.069Z,46.80
2018-04-11T04:10:07.292Z,48.80
2018-04-11T04:12:36.196Z,48.60
2018-04-11T04:15:17.151Z,47.40
2018-04-11T04:17:58.470Z,47.60
2018-04-11T04:20:38.499Z,46.40
2018-04-11T04:23:07.831Z,47.00
2018-04-11T04:25:37.866Z,44.00
2018-04-11T04:28:07.198Z,44.20
2018-04-11T04:30:36.053Z,46.20
2018-04-11T04:33:05.225Z,43.60
2018-04-11T04:35:33.986Z,45.00
2018-04-11T04:38:02.932Z,44.80
2018-04-11T04:40:32.475Z,45.00
2018-04-11T04:43:01.723Z,44.40
2018-04-11T04:45:30.596Z,42.20
2018-04-11T04:47:59.543Z,43.20
2018-04-11T04:50:28.591Z,43.00
2018-04-11T04:52:57.342Z,45.00
2018-04-11T04:55:26.429Z,43.60
2018-04-11T04:57:55.442Z,42.80
2018-04-11T05:00:24.437Z,43.20
2018-04-11T05:02:53.570Z,44.80
2018-04-11T05:05:22.824Z,42.00
2018-04-11T05:07:52.623Z,44.60
2018-04-11T05:10:22.285Z,42.60
2018-04-11T05:12:51.574Z,42.40
2018-04-11T05:15:20.941Z,42.00
2018-04-11T05:17:50.388Z,45.00
2018-04-11T05:20:19.414Z,45.20
2018-04-11T05:22:48.361Z,41.60
2018-04-11T05:25:17.514Z,43.20
2018-04-11T05:27:46.929Z,41.00
2018-04-11T05:30:15.813Z,43.40
2018-04-11T05:32:45.123Z,42.00
2018-04-11T05:35:14.256Z,41.40
2018-04-11T05:37:43.269Z,43.80
2018-04-11T05:40:12.605Z,43.00
2018-04-11T05:42:41.624Z,41.80
2018-04-11T05:45:11.064Z,45.60
2018-04-11T05:47:40.494Z,44.20
2018-04-11T05:50:09.386Z,43.40
2018-04-11T05:52:38.312Z,45.00
2018-04-11T05:55:07.284Z,41.60
2018-04-11T05:57:36.076Z,44.00
2018-04-11T06:00:05.270Z,43.80
2018-04-11T06:02:34.268Z,42.00
2018-04-11T06:05:03.215Z,40.40
2018-04-11T06:07:32.348Z,43.60
2018-04-11T06:10:01.542Z,42.60
2018-04-11T06:12:30.327Z,39.60
2018-04-11T06:14:59.490Z,37.20
2018-04-11T06:17:28.428Z,37.20
2018-04-11T06:19:57.225Z,41.00
2018-04-11T06:22:26.472Z,40.60
2018-04-11T06:24:55.634Z,38.80
2018-04-11T06:27:24.552Z,38.00
2018-04-11T06:29:54.322Z,38.20
2018-04-11T06:32:23.359Z,37.20
2018-04-11T06:34:52.354Z,37.40
2018-04-11T06:37:21.369Z,36.60
2018-04-11T06:39:50.535Z,36.20
2018-04-11T06:42:19.814Z,33.80
2018-04-11T06:44:48.819Z,34.80
2018-04-11T06:47:17.741Z,33.00
2018-04-11T06:49:46.918Z,34.60
2018-04-11T06:52:16.240Z,36.20
2018-04-11T06:54:45.551Z,31.80
2018-04-11T06:57:14.798Z,33.00
2018-04-11T06:59:44.375Z,35.00
2018-04-11T07:02:13.516Z,29.80
2018-04-11T07:04:42.591Z,35.00
2018-04-11T07:07:11.589Z,36.60
2018-04-11T07:09:40.733Z,32.80
2018-04-11T07:12:09.871Z,31.60
2018-04-11T07:14:38.988Z,32.00
2018-04-11T07:17:08.635Z,30.80
2018-04-11T07:19:37.737Z,33.20
2018-04-11T07:22:07.578Z,32.00
2018-04-11T07:24:36.717Z,31.00
2018-04-11T07:27:06.175Z,32.00
2018-04-11T07:29:35.353Z,29.80
2018-04-11T07:32:05.325Z,28.80
2018-04-11T07:34:34.374Z,32.00
2018-04-11T07:37:03.193Z,31.80
2018-04-11T07:39:32.522Z,29.80
2018-04-11T07:42:01.669Z,24.80
2018-04-11T07:44:31.029Z,31.20
2018-04-11T07:47:00.112Z,30.40
2018-04-11T07:49:29.289Z,25.00
2018-04-11T07:51:58.613Z,29.80
2018-04-11T07:54:27.672Z,28.20
2018-04-11T07:56:56.606Z,29.00
2018-04-11T07:59:26.021Z,26.00
2018-04-11T08:01:55.173Z,29.40
2018-04-11T08:04:24.543Z,29.60
2018-04-11T08:06:53.821Z,30.00
2018-04-11T08:09:23.255Z,28.00
2018-04-11T08:11:52.196Z,29.40
2018-04-11T08:14:21.471Z,27.60
2018-04-11T08:16:50.913Z,28.00
2018-04-11T08:19:20.043Z,25.60
2018-04-11T08:21:49.113Z,25.80
2018-04-11T08:24:18.352Z,25.60
2018-04-11T08:26:47.501Z,26.00
2018-04-11T08:29:17.299Z,22.40
2018-04-11T08:31:46.522Z,28.20
2018-04-11T08:34:16.133Z,25.40
2018-04-11T08:36:45.308Z,24.80
2018-04-11T08:39:14.119Z,25.40
2018-04-11T08:41:43.040Z,25.80
2018-04-11T08:44:12.288Z,28.40
2018-04-11T08:46:41.443Z,32.00
2018-04-11T08:49:10.721Z,30.20
2018-04-11T08:51:39.837Z,27.40
2018-04-11T08:54:09.979Z,31.80
2018-04-11T08:56:39.551Z,29.60
2018-04-11T08:59:08.360Z,29.00
2018-04-11T09:01:37.333Z,31.60
2018-04-11T09:04:06.642Z,29.20
2018-04-11T09:06:35.587Z,25.60
2018-04-11T09:09:05.463Z,29.20
2018-04-11T09:11:36.247Z,28.40
2018-04-11T09:14:05.961Z,17.40
2018-04-11T09:16:34.905Z,28.80
2018-04-11T09:19:05.816Z,27.20
2018-04-11T09:21:34.741Z,29.00
2018-04-11T09:24:03.841Z,25.80
2018-04-11T09:26:32.600Z,29.40
2018-04-11T09:29:01.799Z,29.40
2018-04-11T09:31:31.085Z,30.00
2018-04-11T09:34:00.500Z,27.20
2018-04-11T09:36:30.438Z,29.00
2018-04-11T09:38:59.351Z,28.20
2018-04-11T09:41:28.203Z,26.00
2018-04-11T09:43:57.276Z,24.00
2018-04-11T09:46:26.552Z,28.00
2018-04-11T09:48:55.331Z,27.20
2018-04-11T09:51:24.747Z,28.80
2018-04-11T09:53:53.879Z,27.20
2018-04-11T09:56:23.565Z,30.80
2018-04-11T09:58:52.690Z,30.40
2018-04-11T10:01:22.251Z,30.60
2018-04-11T10:03:51.148Z,30.20
2018-04-11T10:06:20.357Z,32.00
2018-04-11T10:08:49.620Z,32.00
2018-04-11T10:11:18.575Z,30.00
2018-04-11T10:13:47.474Z,30.80
2018-04-11T10:16:16.921Z,29.80
2018-04-11T10:18:46.389Z,30.60
2018-04-11T10:21:15.545Z,30.00
2018-04-11T10:23:45.100Z,30.80
2018-04-11T10:26:13.993Z,27.20
2018-04-11T10:28:42.889Z,29.20
2018-04-11T10:31:12.091Z,28.20
2018-04-11T10:33:41.142Z,28.80
2018-04-11T10:36:10.453Z,30.00
2018-04-11T10:38:39.794Z,27.20
2018-04-11T10:41:08.875Z,29.20
2018-04-11T10:43:37.903Z,31.80
2018-04-11T10:46:07.083Z,28.80
2018-04-11T10:48:36.019Z,28.60
2018-04-11T10:51:05.001Z,29.20
2018-04-11T10:53:34.298Z,28.20
2018-04-11T10:56:03.744Z,27.20
2018-04-11T10:58:33.014Z,28.40
2018-04-11T11:01:02.430Z,30.80
2018-04-11T11:03:31.422Z,28.40
2018-04-11T11:06:00.600Z,27.60
2018-04-11T11:08:29.873Z,29.40
2018-04-11T11:10:58.772Z,25.00
2018-04-11T11:13:28.273Z,26.00
2018-04-11T11:15:57.679Z,28.20
2018-04-11T11:18:26.622Z,28.20
2018-04-11T11:21:00.415Z,27.80
2018-04-11T11:23:29.563Z,30.60
2018-04-11T11:25:58.733Z,28.80
2018-04-11T11:28:27.767Z,26.60
2018-04-11T11:30:56.761Z,27.20
2018-04-11T11:33:26.069Z,25.60
2018-04-11T11:35:55.312Z,26.60
2018-04-11T11:38:24.610Z,28.40
2018-04-11T11:40:53.966Z,23.80
2018-04-11T11:43:22.971Z,22.80
2018-04-11T11:45:52.173Z,23.80
2018-04-11T11:48:20.945Z,26.20
2018-04-11T11:50:49.964Z,25.40
2018-04-11T11:53:18.927Z,28.00
2018-04-11T11:55:48.138Z,27.40
2018-04-11T11:58:17.411Z,25.80
2018-04-11T12:00:46.557Z,23.20
2018-04-11T12:03:15.527Z,24.00
2018-04-11T12:05:44.733Z,29.40
2018-04-11T12:08:13.989Z,28.20
2018-04-11T12:10:43.197Z,27.40
2018-04-11T12:13:12.609Z,24.40
2018-04-11T12:15:41.860Z,27.40
2018-04-11T12:18:10.586Z,26.60
2018-04-11T12:20:39.823Z,28.40
2018-04-11T12:23:09.108Z,27.60
2018-04-11T12:25:38.509Z,28.20
2018-04-11T12:28:07.793Z,29.00
2018-04-11T12:30:36.942Z,29.20
2018-04-11T12:33:06.275Z,28.60
2018-04-11T12:35:35.810Z,29.40
2018-04-11T12:38:05.021Z,27.40
2018-04-11T12:40:34.402Z,29.60
2018-04-11T12:43:03.515Z,25.80
2018-04-11T12:45:32.540Z,26.20
2018-04-11T12:48:02.038Z,28.80
2018-04-11T12:50:31.199Z,27.60
2018-04-11T12:53:00.185Z,29.00
2018-04-11T12:55:29.285Z,29.40
2018-04-11T12:57:58.573Z,29.40
2018-04-11T13:00:27.898Z,31.40
2018-04-11T13:02:57.431Z,29.60
2018-04-11T13:05:26.512Z,31.80
2018-04-11T13:07:55.755Z,35.40
2018-04-11T13:10:25.209Z,35.60
2018-04-11T13:12:54.151Z,40.60
2018-04-11T13:15:23.186Z,39.20
2018-04-11T13:17:52.198Z,43.80
2018-04-11T13:20:21.522Z,42.40
2018-04-11T13:22:50.586Z,45.20
2018-04-11T13:25:19.837Z,47.40
2018-04-11T13:27:48.932Z,43.40
2018-04-11T13:30:18.087Z,41.40
2018-04-11T13:32:47.283Z,39.80
2018-04-11T13:35:16.728Z,42.20
2018-04-11T13:37:46.070Z,41.80
2018-04-11T13:40:15.196Z,39.20
2018-04-11T13:42:44.964Z,36.80
2018-04-11T13:45:14.342Z,35.00
2018-04-11T13:47:43.282Z,30.20
2018-04-11T13:50:12.546Z,34.00
2018-04-11T13:52:41.589Z,33.80
2018-04-11T13:55:10.569Z,32.00
2018-04-11T13:57:39.891Z,33.40
2018-04-11T14:00:09.095Z,30.20
2018-04-11T14:02:38.326Z,31.00
2018-04-11T14:05:07.551Z,29.00
2018-04-11T14:07:36.787Z,31.00
2018-04-11T14:10:05.919Z,30.20
2018-04-11T14:12:35.178Z,32.00
2018-04-11T14:15:04.734Z,30.20
2018-04-11T14:17:34.328Z,32.80
2018-04-11T14:20:03.616Z,33.00
2018-04-11T14:22:33.207Z,30.00
2018-04-11T14:25:02.315Z,32.20
2018-04-11T14:27:31.543Z,33.20
2018-04-11T14:30:01.420Z,33.80
2018-04-11T14:32:30.715Z,35.20
2018-04-11T14:35:00.301Z,34.20
2018-04-11T14:37:29.949Z,33.00
2018-04-11T14:39:59.588Z,31.40
2018-04-11T14:42:29.049Z,30.40
2018-04-11T14:44:58.859Z,30.20
2018-04-11T14:47:28.356Z,33.20
2018-04-11T14:49:58.131Z,28.20
2018-04-11T14:52:27.399Z,30.80
2018-04-11T14:54:57.033Z,30.20
2018-04-11T14:57:26.384Z,33.00
2018-04-11T14:59:55.862Z,32.40
2018-04-11T15:02:25.251Z,30.80
2018-04-11T15:04:54.697Z,30.20
2018-04-11T15:07:24.236Z,33.40
2018-04-11T15:09:53.970Z,30.00
2018-04-11T15:12:23.303Z,30.60
2018-04-11T15:14:52.725Z,31.80
2018-04-11T15:17:22.231Z,30.60
2018-04-11T15:19:52.009Z,31.80
2018-04-11T15:22:21.302Z,28.40
2018-04-11T15:24:50.449Z,30.00
2018-04-11T15:27:19.916Z,29.20
2018-04-11T15:29:49.220Z,27.00
2018-04-11T15:32:18.840Z,28.20
2018-04-11T15:34:48.534Z,28.00
2018-04-11T15:37:17.895Z,26.00
2018-04-11T15:39:47.206Z,26.00
2018-04-11T15:42:16.579Z,25.80
2018-04-11T15:44:46.201Z,29.80
2018-04-11T15:47:15.473Z,28.60
2018-04-11T15:49:44.978Z,29.20
2018-04-11T15:52:14.420Z,30.00
2018-04-11T15:54:43.843Z,27.80
2018-04-11T15:57:13.390Z,28.60
2018-04-11T15:59:42.758Z,26.80
2018-04-11T16:02:12.436Z,29.80
2018-04-11T16:04:41.879Z,24.60
2018-04-11T16:07:11.327Z,27.00
2018-04-11T16:09:40.593Z,22.80
2018-04-11T16:12:10.136Z,19.60
2018-04-11T16:14:39.502Z,15.00
2018-04-11T16:17:08.571Z,17.60
2018-04-11T16:19:38.123Z,18.80
2018-04-11T16:22:08.038Z,19.60
2018-04-11T16:24:37.474Z,19.60
2018-04-11T16:27:06.805Z,19.20
2018-04-11T16:29:36.513Z,20.60
2018-04-11T16:32:05.750Z,19.60
2018-04-11T16:34:34.954Z,21.80
2018-04-11T16:37:04.374Z,17.80
2018-04-11T16:39:33.606Z,20.20
2018-04-11T16:42:03.477Z,19.20
2018-04-11T16:44:32.983Z,23.60
2018-04-11T16:47:02.867Z,23.00
2018-04-11T16:49:32.409Z,20.20
2018-04-11T16:52:01.949Z,20.40
2018-04-11T16:54:31.457Z,20.80
2018-04-11T16:57:00.642Z,21.00
2018-04-11T16:59:30.068Z,20.40
2018-04-11T17:01:59.874Z,22.60
2018-04-11T17:04:30.058Z,21.40
2018-04-11T17:06:59.356Z,20.40
2018-04-11T17:09:28.598Z,18.00
2018-04-11T17:11:58.281Z,19.20
2018-04-11T17:14:28.108Z,16.20
2018-04-11T17:16:57.887Z,17.80
2018-04-11T17:19:27.314Z,18.80
2018-04-11T17:22:08.258Z,17.00
2018-04-11T17:27:54.580Z,16.60
2018-04-11T17:30:35.639Z,17.00
2018-04-11T17:33:05.099Z,17.00
2018-04-11T17:35:34.531Z,16.00
2018-04-11T17:38:03.810Z,17.00
2018-04-11T17:40:33.554Z,17.80
2018-04-11T17:43:03.224Z,15.20
2018-04-11T17:45:32.607Z,17.00
2018-04-11T17:48:01.793Z,19.00
2018-04-11T17:50:31.756Z,18.80
2018-04-11T17:53:01.272Z,18.80
2018-04-11T17:55:31.261Z,19.00
2018-04-11T17:58:00.447Z,19.00
2018-04-11T18:00:29.779Z,18.60
2018-04-11T18:02:59.688Z,20.40
2018-04-11T18:05:29.186Z,21.00
2018-04-11T18:07:58.865Z,21.20
2018-04-11T18:10:28.171Z,19.80
2018-04-11T18:12:58.294Z,22.60
2018-04-11T18:15:28.104Z,22.60
2018-04-11T18:17:57.605Z,23.00
2018-04-11T18:20:26.937Z,24.20
2018-04-11T18:22:57.241Z,22.00
2018-04-11T18:25:27.647Z,21.20
2018-04-11T18:27:57.252Z,25.40
2018-04-11T18:30:26.685Z,23.00
2018-04-11T18:32:56.520Z,22.80
2018-04-11T18:35:25.514Z,22.00
2018-04-11T18:37:54.888Z,23.00
2018-04-11T18:40:24.421Z,23.20
2018-04-11T18:42:54.017Z,24.80
2018-04-11T18:45:23.353Z,25.20
2018-04-11T18:47:52.640Z,22.80
2018-04-11T18:50:22.276Z,19.60
2018-04-11T18:52:51.999Z,23.00
2018-04-11T18:55:21.852Z,24.60
2018-04-11T18:57:51.619Z,22.20
2018-04-11T19:00:21.098Z,24.20
2018-04-11T19:02:50.487Z,23.20
2018-04-11T19:05:20.052Z,19.80
2018-04-11T19:07:49.717Z,16.80
2018-04-11T19:10:19.285Z,23.00
2018-04-11T19:12:48.789Z,20.40
2018-04-11T19:15:18.364Z,19.00
2018-04-11T19:17:47.529Z,18.80
2018-04-11T19:20:16.901Z,19.60
2018-04-11T19:22:46.273Z,16.80
2018-04-11T19:25:15.550Z,17.60
2018-04-11T19:27:44.991Z,16.80
2018-04-11T19:30:14.658Z,17.80
2018-04-11T19:32:44.318Z,15.00
2018-04-11T19:35:14.034Z,14.20
2018-04-11T19:37:43.444Z,15.00
2018-04-11T19:40:13.109Z,15.80
2018-04-11T19:42:42.838Z,14.80
2018-04-11T19:45:12.414Z,14.00
2018-04-11T19:47:41.799Z,15.20
2018-04-11T19:50:11.342Z,15.00
2018-04-11T19:52:40.707Z,14.60
2018-04-11T19:55:10.358Z,14.40
2018-04-11T19:57:39.767Z,14.40
2018-04-11T20:00:08.991Z,13.20
2018-04-11T20:02:38.380Z,15.60
2018-04-11T20:05:08.009Z,16.20
2018-04-11T20:07:37.827Z,14.00
2018-04-11T20:10:08.350Z,14.80
2018-04-11T20:12:37.909Z,16.40
2018-04-11T20:15:07.358Z,15.60
2018-04-11T20:17:37.081Z,14.40
2018-04-11T20:20:07.099Z,15.60
2018-04-11T20:22:36.602Z,14.60
2018-04-11T20:25:06.017Z,18.00
2018-04-11T20:27:35.392Z,17.40
2018-04-11T20:30:04.954Z,21.20
2018-04-11T20:32:34.787Z,20.60
2018-04-11T20:35:04.400Z,24.00
2018-04-11T20:37:33.999Z,20.00
2018-04-11T20:40:03.449Z,20.20
2018-04-11T20:42:32.904Z,19.60
2018-04-11T20:45:01.978Z,22.00
2018-04-11T20:47:31.237Z,18.60
2018-04-11T20:50:00.734Z,21.40
2018-04-11T20:52:30.467Z,20.20
2018-04-11T20:54:59.918Z,17.80
2018-04-11T20:57:29.420Z,21.00
2018-04-11T20:59:58.642Z,20.40
2018-04-11T21:02:27.844Z,21.20
2018-04-11T21:04:57.052Z,19.00
2018-04-11T21:07:26.546Z,20.80
2018-04-11T21:09:55.981Z,19.40
2018-04-11T21:12:25.373Z,19.40
2018-04-11T21:14:54.980Z,21.00
2018-04-11T21:17:24.504Z,19.60
2018-04-11T21:19:53.927Z,18.60
2018-04-11T21:22:23.437Z,19.60
2018-04-11T21:24:52.938Z,20.40
2018-04-11T21:27:22.403Z,18.00
2018-04-11T21:29:51.480Z,19.60
2018-04-11T21:32:20.874Z,18.80
2018-04-11T21:34:50.031Z,21.00
2018-04-11T21:37:19.688Z,19.80
2018-04-11T21:39:49.591Z,17.60
2018-04-11T21:42:19.062Z,22.00
2018-04-11T21:44:48.233Z,20.00
2018-04-11T21:47:17.971Z,20.80
2018-04-11T21:49:47.484Z,21.80
2018-04-11T21:52:17.046Z,24.00
2018-04-11T21:54:48.006Z,19.80
2018-04-11T21:57:17.817Z,19.40
2018-04-11T21:59:47.454Z,21.20
2018-04-11T22:02:16.781Z,21.40
2018-04-11T22:04:46.482Z,22.80
2018-04-11T22:07:17.300Z,22.60
2018-04-11T22:09:47.699Z,23.40
2018-04-11T22:12:17.145Z,23.00
2018-04-11T22:14:48.050Z,24.20
2018-04-11T22:17:18.206Z,25.60
2018-04-11T22:19:47.594Z,21.40
2018-04-11T22:22:18.064Z,22.20
2018-04-11T22:24:47.986Z,23.20
2018-04-11T22:27:17.777Z,23.80
2018-04-11T22:29:46.963Z,21.40
2018-04-11T22:32:16.830Z,20.40
2018-04-11T22:34:46.082Z,21.20
2018-04-11T22:37:15.406Z,22.20
2018-04-11T22:39:46.461Z,21.20
2018-04-11T22:42:17.326Z,20.60
2018-04-11T22:44:46.358Z,19.60
2018-04-11T22:47:15.823Z,19.20
2018-04-11T22:49:45.318Z,18.80
2018-04-11T22:52:14.896Z,17.00
2018-04-11T22:54:44.165Z,18.20
2018-04-11T22:57:13.457Z,19.80
2018-04-11T22:59:43.122Z,18.00
2018-04-11T23:02:12.681Z,18.60
2018-04-11T23:04:41.924Z,18.20
2018-04-11T23:07:11.523Z,19.40
2018-04-11T23:09:55.824Z,16.60
2018-04-11T23:12:25.395Z,19.80
2018-04-11T23:14:54.925Z,18.00
2018-04-11T23:17:24.375Z,18.40
2018-04-11T23:19:53.548Z,15.40
2018-04-11T23:22:22.742Z,18.80
2018-04-11T23:24:52.330Z,19.00
2018-04-11T23:27:21.619Z,17.80
2018-04-11T23:29:51.030Z,17.40
2018-04-11T23:32:20.415Z,18.40
2018-04-11T23:34:49.865Z,19.40
2018-04-11T23:37:19.251Z,19.00
2018-04-11T23:39:48.435Z,18.80
2018-04-11T23:42:18.629Z,17.20
2018-04-11T23:44:47.796Z,16.80
2018-04-11T23:47:17.069Z,19.20
2018-04-11T23:49:46.413Z,19.20
2018-04-11T23:52:15.787Z,17.40
2018-04-11T23:54:44.748Z,18.20
2018-04-11T23:57:14.382Z,17.60
2018-04-11T23:59:43.485Z,18.60
